Time;durP1;ratioP1;P1;durP2;ratioP2;P2;SDS_P1;SDS_P2;PMS_P1;PMS_P2;Temp;Humidity;BMP_temperature;BMP_pressure;BME280_temperature;BME280_humidity;BME280_pressure;Samples;Min_cycle;Max_cycle;Signal;HPM_P1;HPM_P2
2022/07/12 00:00:04;;;;;;;11.05;5.43;;;;;;;23.85;67.85;100969.53;2105969;28;20579;-72
2022/07/12 00:01:28;;;;;;;8.63;5.18;;;;;;;23.86;67.65;100967.72;2102807;28;20146;-72
2022/07/12 00:02:50;;;;;;;10.55;5.60;;;;;;;23.85;67.86;100972.25;2102752;28;20602;-71
2022/07/12 00:04:12;;;;;;;12.05;4.93;;;;;;;23.83;67.87;100966.91;2103132;28;20047;-72
2022/07/12 00:05:36;;;;;;;10.90;5.25;;;;;;;23.82;67.64;100969.66;2103177;28;20170;-72
2022/07/12 00:06:57;;;;;;;10.13;4.68;;;;;;;23.80;67.77;100967.03;2103091;28;20143;-72
2022/07/12 00:08:20;;;;;;;11.63;4.28;;;;;;;23.78;67.72;100965.31;2103187;28;20147;-71
2022/07/12 00:09:41;;;;;;;8.50;4.25;;;;;;;23.74;67.53;100967.25;2094583;28;20250;-72
2022/07/12 00:11:04;;;;;;;12.05;4.75;;;;;;;23.74;67.53;100963.66;2100352;28;20048;-71
2022/07/12 00:12:25;;;;;;;8.73;5.45;;;;;;;23.72;67.44;100963.72;2094786;28;20045;-71
2022/07/12 00:13:48;;;;;;;7.10;4.38;;;;;;;23.72;67.28;100969.09;2092068;28;20052;-72
2022/07/12 00:15:11;;;;;;;10.75;4.07;;;;;;;23.70;67.17;100962.88;2109005;28;20058;-71
2022/07/12 00:16:33;;;;;;;9.98;4.35;;;;;;;23.69;66.89;100963.84;2105743;28;20048;-72
2022/07/12 00:17:55;;;;;;;8.27;4.43;;;;;;;23.68;66.80;100969.28;2103054;28;20048;-72
2022/07/12 00:19:17;;;;;;;9.15;4.10;;;;;;;23.68;66.75;100966.56;2103101;28;20426;-71
2022/07/12 00:20:40;;;;;;;9.50;4.53;;;;;;;23.67;66.75;100963.00;2102851;28;20139;-71
2022/07/12 00:22:02;;;;;;;8.65;4.50;;;;;;;23.65;66.55;100959.47;2103112;28;20147;-71
2022/07/12 00:23:25;;;;;;;9.18;4.75;;;;;;;23.64;66.31;100964.91;2102562;28;20048;-71
2022/07/12 00:24:46;;;;;;;6.40;4.15;;;;;;;23.63;66.26;100960.47;2103181;28;20048;-71
2022/07/12 00:26:09;;;;;;;10.00;4.40;;;;;;;23.62;66.03;100970.38;2097157;28;20537;-71
2022/07/12 00:27:30;;;;;;;7.65;3.88;;;;;;;23.60;66.13;100961.44;2100248;28;20197;-71
2022/07/12 00:28:53;;;;;;;6.90;4.72;;;;;;;23.59;65.97;100959.69;2102979;28;20036;-72
2022/07/12 00:30:16;;;;;;;8.98;4.35;;;;;;;23.61;65.81;100968.59;2097073;28;20080;-72
2022/07/12 00:31:37;;;;;;;9.65;4.38;;;;;;;23.62;65.79;100967.69;2108356;28;20066;-72
2022/07/12 00:33:00;;;;;;;8.77;4.47;;;;;;;23.62;65.61;100964.97;2097216;28;20036;-72
2022/07/12 00:34:22;;;;;;;10.32;4.82;;;;;;;23.60;65.62;100961.44;2102950;28;20052;-72
2022/07/12 00:35:45;;;;;;;9.25;4.60;;;;;;;23.61;65.60;100967.72;2102874;28;20140;-72
2022/07/12 00:37:07;;;;;;;9.25;4.70;;;;;;;23.59;65.59;100969.59;2103021;28;20527;-72
2022/07/12 00:38:30;;;;;;;10.40;5.38;;;;;;;23.58;65.68;100971.38;2102440;28;20655;-72
2022/07/12 00:39:51;;;;;;;8.85;4.72;;;;;;;23.57;65.87;100966.03;2102878;28;20069;-72
2022/07/12 00:41:14;;;;;;;7.95;4.32;;;;;;;23.55;66.07;100965.25;2102893;28;20493;-72
2022/07/12 00:42:38;;;;;;;11.30;5.05;;;;;;;23.55;66.17;100962.53;2105544;28;20109;-72
2022/07/12 00:43:59;;;;;;;9.98;4.95;;;;;;;23.55;66.28;100970.63;2103143;28;20082;-72
2022/07/12 00:45:21;;;;;;;9.02;4.55;;;;;;;23.56;66.51;100967.00;2102678;28;20101;-72
2022/07/12 00:46:45;;;;;;;8.73;4.45;;;;;;;23.55;66.53;100970.63;2106229;28;20405;-72
2022/07/12 00:48:07;;;;;;;11.65;5.07;;;;;;;23.56;66.57;100962.50;2105426;28;20101;-72
2022/07/12 00:49:30;;;;;;;9.95;5.00;;;;;;;23.56;66.88;100961.63;2111508;28;20394;-72
2022/07/12 00:50:54;;;;;;;7.95;4.93;;;;;;;23.57;66.94;100966.03;2105254;28;20131;-72
2022/07/12 00:52:16;;;;;;;10.43;4.47;;;;;;;23.54;67.14;100958.97;2102765;28;20075;-72
2022/07/12 00:53:38;;;;;;;8.35;4.32;;;;;;;23.54;67.19;100960.78;2094355;28;20591;-72
2022/07/12 00:54:59;;;;;;;11.77;5.15;;;;;;;23.53;67.21;100962.59;2111165;28;20063;-73
2022/07/12 00:56:22;;;;;;;6.68;4.25;;;;;;;23.53;67.28;100965.28;2105513;28;20105;-72
2022/07/12 00:57:44;;;;;;;8.27;4.40;;;;;;;23.53;67.29;100959.91;2105581;28;20059;-73
2022/07/12 00:59:06;;;;;;;;;;;;;;;23.52;67.15;100962.63;2094566;28;20498;-72
2022/07/12 01:00:28;;;;;;;9.82;5.20;;;;;;;23.52;66.88;100958.13;2099780;28;19923;-71
2022/07/12 01:01:51;;;;;;;;;;;;;;;23.50;66.61;100954.59;2097677;28;20051;-72
2022/07/12 01:03:14;;;;;;;9.07;4.80;;;;;;;23.50;66.67;100968.06;2102648;28;19924;-72
2022/07/12 01:04:36;;;;;;;8.32;4.40;;;;;;;23.52;66.36;100962.63;2102938;28;20120;-72
2022/07/12 01:06:00;;;;;;;10.70;4.60;;;;;;;23.54;65.86;100960.78;2104884;28;20492;-72
2022/07/12 01:07:24;;;;;;;7.95;4.25;;;;;;;23.55;65.68;100965.25;2094385;28;20071;-72
2022/07/12 01:08:46;;;;;;;10.38;4.38;;;;;;;23.55;65.40;100971.50;2100551;28;20129;-72
2022/07/12 01:10:08;;;;;;;8.25;5.00;;;;;;;23.55;65.33;100968.81;2105447;28;20135;-72
2022/07/12 01:11:31;;;;;;;10.13;4.65;;;;;;;23.55;65.18;100965.25;2102542;28;20048;-72
2022/07/12 01:12:53;;;;;;;10.43;4.65;;;;;;;23.55;65.17;100962.53;2102372;28;20073;-72
2022/07/12 01:14:16;;;;;;;10.65;4.57;;;;;;;23.56;65.21;100964.31;2102223;28;20158;-72
2022/07/12 01:15:37;;;;;;;7.88;4.60;;;;;;;23.57;65.05;100971.44;2101914;28;20135;-72
2022/07/12 01:17:01;;;;;;;9.50;4.72;;;;;;;23.56;64.94;100965.19;2105437;28;20143;-72
2022/07/12 01:18:22;;;;;;;9.75;3.90;;;;;;;23.57;64.96;100966.94;2102317;28;20090;-72
2022/07/12 01:19:45;;;;;;;;;;;;;;;23.54;64.79;100966.16;2105718;28;20051;-72
2022/07/12 01:21:11;;;;;;;8.32;4.90;;;;;;;23.54;64.86;100967.06;2102852;28;19951;-72
2022/07/12 01:22:36;;;;;;;9.40;4.10;;;;;;;23.53;64.71;100970.69;2105016;28;20048;-72
2022/07/12 01:24:01;;;;;;;5.75;3.70;;;;;;;23.53;64.74;100972.50;2105140;28;20051;-72
2022/07/12 01:25:24;;;;;;;9.75;4.05;;;;;;;23.53;65.08;100967.97;2094857;28;20045;-71
2022/07/12 01:26:47;;;;;;;10.18;5.00;;;;;;;23.57;65.12;100971.44;2091353;28;20083;-72
2022/07/12 01:28:09;;;;;;;10.10;4.10;;;;;;;23.58;64.99;100968.69;2108213;28;20543;-72
2022/07/12 01:29:31;;;;;;;6.90;4.32;;;;;;;23.58;65.14;100973.22;2105323;28;20474;-72
2022/07/12 01:30:53;;;;;;;6.40;3.83;;;;;;;23.55;65.12;100970.63;2102302;28;20047;-72
2022/07/12 01:32:24;;;;;;;9.95;5.28;;;;;;;23.53;65.28;100967.97;2102451;28;20075;-72
2022/07/12 01:33:48;;;;;;;12.75;4.53;;;;;;;23.53;65.26;100975.19;2095350;28;20060;-72
2022/07/12 01:35:09;;;;;;;7.25;4.05;;;;;;;23.52;65.40;100978.81;2099974;28;20098;-72
2022/07/12 01:36:32;;;;;;;8.88;4.85;;;;;;;23.52;65.43;100971.59;2102333;28;20072;-72
2022/07/12 01:37:55;;;;;;;7.75;5.05;;;;;;;23.52;65.50;100979.69;2105149;28;20135;-72
2022/07/12 01:39:18;;;;;;;7.72;4.57;;;;;;;23.54;65.40;100974.25;2102311;28;20440;-72
2022/07/12 01:40:41;;;;;;;9.35;5.50;;;;;;;23.54;65.46;100971.56;2094015;28;20407;-72
2022/07/12 01:42:02;;;;;;;6.65;4.30;;;;;;;23.53;65.45;100989.56;2111113;28;20048;-72
2022/07/12 01:43:25;;;;;;;8.10;4.15;;;;;;;23.52;65.44;100984.19;2104861;28;20036;-72
2022/07/12 01:44:47;;;;;;;7.88;4.68;;;;;;;23.51;65.56;100983.31;2094032;28;20060;-72
2022/07/12 01:46:10;;;;;;;9.77;4.05;;;;;;;23.53;65.64;100973.38;2100184;28;20552;-71
2022/07/12 01:47:32;;;;;;;10.00;4.50;;;;;;;23.54;65.59;100975.13;2102522;28;20585;-72
2022/07/12 01:48:54;;;;;;;8.13;4.80;;;;;;;23.57;65.78;100976.84;2110201;28;20044;-72
2022/07/12 01:50:16;;;;;;;6.68;4.22;;;;;;;23.57;65.77;100971.44;2107863;28;20109;-72
2022/07/12 01:51:39;;;;;;;7.55;5.20;;;;;;;23.56;65.72;100975.09;2102244;28;20082;-71
2022/07/12 01:53:02;;;;;;;6.20;3.83;;;;;;;23.57;65.60;100976.84;2093908;28;20048;-71
2022/07/12 01:54:26;;;;;;;7.78;3.58;;;;;;;23.58;65.25;100971.38;2100081;28;20051;-72
2022/07/12 01:55:48;;;;;;;6.93;3.22;;;;;;;23.60;64.98;100974.03;2102079;28;20082;-72
2022/07/12 01:57:10;;;;;;;9.43;3.17;;;;;;;23.60;64.36;100976.75;2104976;28;20057;-72
2022/07/12 01:58:33;;;;;;;5.57;3.53;;;;;;;23.62;64.01;100973.06;2094002;28;20363;-71
2022/07/12 01:59:56;;;;;;;6.55;3.33;;;;;;;23.62;63.64;100973.06;2099701;28;20086;-71
2022/07/12 02:01:19;;;;;;;5.75;3.17;;;;;;;23.62;63.35;100983.84;2094303;28;20048;-72
2022/07/12 02:02:41;;;;;;;8.35;3.10;;;;;;;23.64;63.17;100981.97;2091225;28;20048;-71
2022/07/12 02:04:05;;;;;;;7.57;3.78;;;;;;;23.66;62.88;100976.53;2099492;28;20044;-71
2022/07/12 02:05:27;;;;;;;7.65;3.65;;;;;;;23.66;62.71;100990.00;2102685;28;20051;-72
2022/07/12 02:06:49;;;;;;;7.70;3.50;;;;;;;23.67;62.60;100987.25;2104892;28;20550;-71
2022/07/12 02:08:12;;;;;;;6.70;3.65;;;;;;;23.68;62.70;100989.03;2102132;28;20048;-71
2022/07/12 02:09:35;;;;;;;8.88;3.72;;;;;;;23.68;62.71;100991.72;2093939;28;20044;-71
2022/07/12 02:10:57;;;;;;;7.00;3.50;;;;;;;23.66;62.64;100988.19;2099787;28;20071;-72
2022/07/12 02:12:19;;;;;;;11.70;3.92;;;;;;;23.66;62.91;100995.41;2096480;28;20498;-72
2022/07/12 02:13:42;;;;;;;5.93;3.75;;;;;;;23.64;62.92;100992.75;2093827;28;20040;-72
2022/07/12 02:15:04;;;;;;;8.15;3.13;;;;;;;23.63;62.90;101000.91;2102449;28;20047;-72
2022/07/12 02:16:27;;;;;;;7.03;3.65;;;;;;;23.62;63.00;100993.75;2101812;28;20107;-72
2022/07/12 02:17:49;;;;;;;6.97;3.90;;;;;;;23.61;63.04;100994.69;2102145;28;20570;-72
2022/07/12 02:19:11;;;;;;;6.30;3.22;;;;;;;23.60;62.97;100991.09;2110556;28;20067;-72
2022/07/12 02:20:34;;;;;;;7.45;3.42;;;;;;;23.59;63.28;100993.84;2104612;28;20056;-72
2022/07/12 02:21:55;;;;;;;8.52;3.75;;;;;;;23.60;63.35;101001.88;2110667;28;20496;-72
2022/07/12 02:23:18;;;;;;;9.13;4.38;;;;;;;23.61;63.26;101016.25;2095935;28;20068;-72
2022/07/12 02:24:42;;;;;;;9.45;3.25;;;;;;;23.58;63.27;101001.03;2098961;28;20052;-72
2022/07/12 02:26:03;;;;;;;4.95;3.00;;;;;;;23.56;63.20;101007.44;2102135;28;20131;-72
2022/07/12 02:27:26;;;;;;;5.45;3.55;;;;;;;23.56;63.19;101005.63;2102008;28;20048;-72
2022/07/12 02:28:48;;;;;;;9.40;3.58;;;;;;;23.56;63.17;101005.63;2110666;28;20043;-72
2022/07/12 02:30:11;;;;;;;8.75;3.65;;;;;;;23.56;63.15;101013.72;2104724;28;20046;-72
2022/07/12 02:31:33;;;;;;;6.00;3.40;;;;;;;23.55;63.24;101011.06;2093845;28;20061;-72
2022/07/12 02:32:55;;;;;;;10.68;4.30;;;;;;;23.56;63.22;101004.75;2099216;28;20508;-72
2022/07/12 02:34:17;;;;;;;11.90;4.13;;;;;;;23.56;63.15;101007.44;2104888;28;20067;-72
2022/07/12 02:35:39;;;;;;;8.45;3.70;;;;;;;23.55;63.18;100998.47;2102033;28;20560;-72
2022/07/12 02:37:02;;;;;;;7.05;4.10;;;;;;;23.56;63.24;101008.31;2110410;28;20039;-72
2022/07/12 02:38:24;;;;;;;8.85;3.58;;;;;;;23.56;63.05;101005.63;2107505;28;20044;-72
2022/07/12 02:39:47;;;;;;;6.78;3.22;;;;;;;23.57;63.12;101004.66;2102147;28;20055;-72
2022/07/12 02:41:09;;;;;;;8.93;4.45;;;;;;;23.58;62.94;101014.53;2110529;28;20601;-72
2022/07/12 02:42:31;;;;;;;5.68;3.70;;;;;;;23.60;62.89;101006.41;2104897;28;20147;-72
2022/07/12 02:43:54;;;;;;;5.78;3.15;;;;;;;23.61;62.77;101011.75;2110717;28;20050;-72
2022/07/12 02:45:16;;;;;;;6.18;3.50;;;;;;;23.62;62.77;101004.53;2104746;28;20101;-71
2022/07/12 02:46:37;;;;;;;5.72;3.10;;;;;;;23.62;62.60;101018.00;2104719;28;20048;-72
2022/07/12 02:48:00;;;;;;;7.20;3.17;;;;;;;23.60;62.47;101018.06;2110203;28;20059;-72
2022/07/12 02:49:22;;;;;;;11.73;4.05;;;;;;;23.60;62.52;101019.88;2110562;28;20050;-71
2022/07/12 02:50:44;;;;;;;7.65;3.53;;;;;;;23.58;62.41;101019.91;2110642;28;20047;-72
2022/07/12 02:52:07;;;;;;;8.88;3.35;;;;;;;23.58;62.59;101027.13;2109908;28;20089;-72
2022/07/12 02:53:29;;;;;;;6.97;3.38;;;;;;;23.56;62.54;101008.31;2110606;28;20144;-71
2022/07/12 02:54:53;;;;;;;6.78;3.58;;;;;;;23.56;62.64;101015.53;2110525;28;20153;-72
2022/07/12 02:56:15;;;;;;;8.32;3.65;;;;;;;23.52;62.65;101020.13;2110612;28;20047;-72
2022/07/12 02:57:37;;;;;;;7.28;3.80;;;;;;;23.52;62.79;101022.81;2110186;28;20045;-72
2022/07/12 02:59:00;;;;;;;8.82;3.25;;;;;;;23.50;62.86;101024.69;2110322;28;20065;-72
2022/07/12 03:00:21;;;;;;;6.65;4.07;;;;;;;23.48;62.86;101014.91;2110357;28;20079;-72
2022/07/12 03:01:44;;;;;;;7.90;3.42;;;;;;;23.45;62.74;101019.41;2110475;28;20500;-72
2022/07/12 03:03:07;;;;;;;4.28;2.50;;;;;;;23.43;63.03;101020.41;2110308;28;20055;-72
2022/07/12 03:04:30;;;;;;;4.25;2.88;;;;;;;23.44;62.70;101023.03;2102134;28;20055;-72
2022/07/12 03:05:51;;;;;;;7.13;3.83;;;;;;;23.48;62.56;101022.97;2098998;28;20079;-72
2022/07/12 03:07:13;;;;;;;6.25;3.60;;;;;;;23.48;62.41;101026.56;2099083;28;20044;-72
2022/07/12 03:08:36;;;;;;;8.00;4.03;;;;;;;23.48;62.17;101023.88;2107541;28;20044;-72
2022/07/12 03:09:59;;;;;;;10.55;3.55;;;;;;;23.48;62.32;101031.06;2110404;28;20051;-72
2022/07/12 03:11:21;;;;;;;8.55;3.67;;;;;;;23.49;62.13;101014.84;2110315;28;20047;-71
2022/07/12 03:12:42;;;;;;;5.72;3.63;;;;;;;23.52;62.12;101028.22;2110022;28;20048;-72
2022/07/12 03:14:05;;;;;;;7.25;3.55;;;;;;;23.52;62.12;101032.72;2101882;28;20375;-72
2022/07/12 03:15:27;;;;;;;8.20;3.58;;;;;;;23.50;62.13;101024.69;2107670;28;20051;-72
2022/07/12 03:16:50;;;;;;;5.93;3.50;;;;;;;23.52;62.39;101030.03;2102065;28;20040;-72
2022/07/12 03:18:13;;;;;;;8.07;3.75;;;;;;;23.56;62.51;101035.28;2107819;28;20143;-72
2022/07/12 03:19:35;;;;;;;9.02;4.55;;;;;;;23.59;62.48;101028.88;2109991;28;20148;-72
2022/07/12 03:20:57;;;;;;;6.65;3.85;;;;;;;23.60;62.67;101033.34;2110201;28;20043;-72
2022/07/12 03:22:19;;;;;;;7.15;3.85;;;;;;;23.61;62.88;101027.03;2110365;28;20078;-72
2022/07/12 03:23:43;;;;;;;6.72;3.53;;;;;;;23.62;62.85;101039.59;2109821;28;20055;-72
2022/07/12 03:25:08;;;;;;;6.22;3.10;;;;;;;23.65;62.97;101039.47;2110501;28;20039;-72
2022/07/12 03:26:31;;;;;;;7.80;3.70;;;;;;;23.65;63.06;101039.47;2110341;28;20075;-72
2022/07/12 03:27:54;;;;;;;8.23;3.60;;;;;;;23.67;63.28;101038.50;2109952;28;20078;-71
2022/07/12 03:29:16;;;;;;;8.57;3.38;;;;;;;23.69;63.18;101035.75;2110459;28;20096;-72
2022/07/12 03:30:39;;;;;;;7.80;3.40;;;;;;;23.74;63.03;101052.63;2102073;28;20052;-72
2022/07/12 03:32:01;;;;;;;7.88;3.50;;;;;;;23.79;62.93;101050.66;2107515;28;20045;-72
2022/07/12 03:33:24;;;;;;;5.93;3.10;;;;;;;23.87;62.66;101048.59;2110002;28;20044;-72
2022/07/12 03:34:45;;;;;;;5.25;3.13;;;;;;;23.92;62.38;101046.59;2110466;28;20051;-72
2022/07/12 03:36:09;;;;;;;5.00;3.05;;;;;;;24.00;62.09;101052.63;2110534;28;20047;-72
2022/07/12 03:37:41;;;;;;;6.45;3.65;;;;;;;24.06;61.53;101046.13;2112106;28;20048;-72
2022/07/12 03:39:03;;;;;;;4.15;2.80;;;;;;;24.12;61.31;101048.59;2113415;28;20070;-72
2022/07/12 03:40:27;;;;;;;6.10;2.60;;;;;;;24.20;60.86;101047.44;2111443;28;20063;-72
2022/07/12 03:41:48;;;;;;;5.13;3.10;;;;;;;24.27;60.57;101055.31;2111774;28;20097;-72
2022/07/12 03:43:10;;;;;;;5.25;2.95;;;;;;;24.35;60.13;101048.66;2111740;28;20159;-71
2022/07/12 03:44:33;;;;;;;5.72;2.90;;;;;;;24.41;59.57;101053.00;2114419;28;20044;-72
2022/07/12 03:45:56;;;;;;;7.70;3.28;;;;;;;24.51;59.69;101049.88;2111789;28;20445;-72
2022/07/12 03:47:17;;;;;;;6.50;2.88;;;;;;;24.60;59.27;101048.66;2111571;28;20098;-72
2022/07/12 03:48:39;;;;;;;5.13;2.80;;;;;;;24.68;59.27;101048.38;2111543;28;20541;-72
2022/07/12 03:50:02;;;;;;;4.78;2.72;;;;;;;24.78;58.99;101056.06;2111725;28;20091;-72
2022/07/12 03:51:24;;;;;;;7.65;3.00;;;;;;;24.87;58.64;101042.22;2108793;28;20060;-72
2022/07/12 03:52:45;;;;;;;6.57;3.30;;;;;;;24.97;58.42;101037.34;2112102;28;20088;-72
2022/07/12 03:54:08;;;;;;;6.47;3.05;;;;;;;25.08;58.27;101040.50;2111791;28;20082;-72
2022/07/12 03:55:32;;;;;;;4.50;2.80;;;;;;;25.20;57.86;101044.56;2114607;28;20141;-72
2022/07/12 03:58:34;;;;;;;5.63;2.58;;;;;;;25.40;58.02;101050.88;2113933;28;20130;-72
2022/07/12 03:59:56;;;;;;;7.13;3.33;;;;;;;25.47;57.84;101045.25;2111629;28;20047;-72
2022/07/12 04:01:18;;;;;;;14.55;4.20;;;;;;;25.53;58.28;101051.28;2111721;28;21032;-72
2022/07/12 04:02:40;;;;;;;7.63;3.33;;;;;;;25.62;58.16;101047.31;2111524;28;20554;-72
2022/07/12 04:04:03;;;;;;;7.07;3.25;;;;;;;25.73;58.28;101040.50;2111629;28;20047;-72
2022/07/12 04:05:26;;;;;;;5.45;3.30;;;;;;;25.87;58.40;101047.16;2103296;28;20116;-72
2022/07/12 04:06:48;;;;;;;7.63;3.00;;;;;;;25.95;57.53;101043.19;2111686;28;20099;-72
2022/07/12 04:08:10;;;;;;;4.35;2.30;;;;;;;26.01;56.98;101045.63;2111039;28;20055;-72
2022/07/12 04:09:31;;;;;;;5.10;2.95;;;;;;;26.10;56.78;101049.75;2111395;28;20059;-72
2022/07/12 04:10:56;;;;;;;4.45;2.10;;;;;;;26.19;56.32;101043.91;2103107;28;20040;-72
2022/07/12 04:12:18;;;;;;;6.40;3.00;;;;;;;26.30;55.72;101040.78;2111585;28;20146;-72
2022/07/12 04:13:40;;;;;;;7.47;2.97;;;;;;;26.34;55.90;101040.56;2102982;28;20059;-72
2022/07/12 04:15:03;;;;;;;7.03;2.97;;;;;;;26.45;55.90;101029.25;2100429;28;20067;-72
2022/07/12 04:16:24;;;;;;;6.28;3.38;;;;;;;26.56;55.68;101038.66;2109683;28;20047;-72
2022/07/12 04:17:47;;;;;;;5.00;2.60;;;;;;;26.68;55.20;101037.19;2102963;28;20139;-72
2022/07/12 04:19:09;;;;;;;6.03;2.90;;;;;;;26.78;54.48;101045.78;2104096;28;20444;-72
2022/07/12 04:20:34;;;;;;;3.90;2.35;;;;;;;26.87;53.55;101046.22;2109639;28;20035;-72
2022/07/12 04:21:55;;;;;;;10.73;2.88;;;;;;;26.96;52.95;101029.56;2110621;28;20535;-72
2022/07/12 04:23:18;;;;;;;6.97;2.72;;;;;;;27.03;52.74;101041.00;2109843;28;20071;-72
2022/07/12 04:24:41;;;;;;;7.35;2.38;;;;;;;27.12;52.77;101045.06;2111208;28;20050;-72
2022/07/12 04:26:04;;;;;;;4.45;2.55;;;;;;;27.20;52.52;101038.31;2110913;28;20074;-72
2022/07/12 04:27:29;;;;;;;5.95;2.85;;;;;;;27.31;52.58;101041.38;2099155;28;20403;-72
2022/07/12 04:28:50;;;;;;;5.50;2.80;;;;;;;27.48;52.64;101043.28;2108057;28;20039;-71
2022/07/12 04:30:13;;;;;;;6.13;2.78;;;;;;;27.62;52.27;101037.19;2099536;28;20101;-71
2022/07/12 04:31:34;;;;;;;4.93;3.25;;;;;;;27.75;52.12;101049.19;2106010;28;20127;-71
2022/07/12 04:32:56;;;;;;;5.65;2.55;;;;;;;27.89;51.85;101030.34;2110545;28;20058;-71
2022/07/12 04:34:18;;;;;;;5.15;2.47;;;;;;;28.01;51.47;101045.13;2110771;28;20094;-71
2022/07/12 04:35:40;;;;;;;3.85;2.70;;;;;;;28.16;51.41;101048.91;2111305;28;20102;-71
2022/07/12 04:37:03;;;;;;;5.38;2.65;;;;;;;28.32;51.09;101037.13;2102354;28;20059;-71
2022/07/12 04:38:25;;;;;;;10.52;2.83;;;;;;;28.46;51.12;101037.28;2102935;28;20113;-71
2022/07/12 04:39:47;;;;;;;6.68;2.58;;;;;;;28.60;51.07;101039.25;2103161;28;20134;-71
2022/07/12 04:41:10;;;;;;;5.07;2.90;;;;;;;28.70;51.17;101036.88;2105691;28;20163;-72
2022/07/12 04:42:33;;;;;;;7.55;3.15;;;;;;;28.74;51.59;101042.13;2102928;28;20131;-71
2022/07/12 04:43:54;;;;;;;6.85;3.33;;;;;;;28.85;51.62;101031.50;2102775;28;20052;-71
2022/07/12 04:45:16;;;;;;;4.03;2.45;;;;;;;28.97;51.48;101032.66;2102684;28;20269;-71
2022/07/12 04:46:38;;;;;;;4.07;2.67;;;;;;;29.06;50.97;101033.97;2108291;28;20521;-71
2022/07/12 04:48:00;;;;;;;5.18;2.75;;;;;;;29.15;50.47;101037.03;2110565;28;20421;-71
2022/07/12 04:49:23;;;;;;;6.15;3.08;;;;;;;29.34;49.92;101042.34;2114088;28;20063;-71
2022/07/12 04:50:45;;;;;;;3.30;2.47;;;;;;;29.50;49.08;101031.44;2110720;28;20319;-71
2022/07/12 04:52:08;;;;;;;5.43;2.50;;;;;;;29.60;48.72;101044.41;2111568;28;20133;-71
2022/07/12 04:53:29;;;;;;;3.25;2.22;;;;;;;29.71;48.12;101043.78;2111088;28;20043;-71
2022/07/12 04:54:52;;;;;;;5.50;2.58;;;;;;;29.86;47.53;101051.06;2113925;28;20094;-72
2022/07/12 04:56:15;;;;;;;4.45;2.17;;;;;;;30.01;46.85;101050.13;2114135;28;20078;-71
2022/07/12 04:57:38;;;;;;;6.43;2.22;;;;;;;30.16;45.63;101055.63;2110965;28;20051;-71
2022/07/12 04:58:59;;;;;;;5.20;2.20;;;;;;;30.35;44.59;101054.41;2111220;28;20067;-71
2022/07/12 05:00:22;;;;;;;5.80;2.30;;;;;;;30.54;43.60;101047.81;2114096;28;20433;-71
2022/07/12 05:01:45;;;;;;;5.40;2.28;;;;;;;30.71;42.19;101059.44;2111029;28;20063;-71
2022/07/12 05:03:06;;;;;;;6.25;2.47;;;;;;;30.78;41.74;101058.06;2111200;28;20071;-71
2022/07/12 05:04:32;;;;;;;4.20;2.15;;;;;;;30.90;41.02;101061.88;2111247;28;20046;-71
2022/07/12 05:05:54;;;;;;;4.65;2.00;;;;;;;31.11;40.77;101056.91;2111402;28;20048;-71
2022/07/12 05:07:17;;;;;;;6.07;2.40;;;;;;;31.29;40.43;101058.41;2105279;28;20036;-71
2022/07/12 05:08:38;;;;;;;4.28;2.15;;;;;;;31.47;40.68;101056.31;2109097;28;20160;-71
2022/07/12 05:10:00;;;;;;;;;;;;;;;31.56;40.34;101061.16;2109669;28;20057;-71
2022/07/12 05:11:25;;;;;;;3.05;2.10;;;;;;;31.80;40.49;101055.94;2102668;28;19970;-71
2022/07/12 05:12:48;;;;;;;6.50;2.72;;;;;;;31.88;40.78;101062.63;2110877;28;20040;-71
2022/07/12 05:14:09;;;;;;;7.50;2.60;;;;;;;31.96;41.20;101054.78;2110092;28;20120;-72
2022/07/12 05:15:32;;;;;;;6.40;2.70;;;;;;;32.01;41.30;101073.59;2101975;28;20036;-72
2022/07/12 05:16:54;;;;;;;5.18;2.30;;;;;;;32.12;41.71;101070.09;2108010;28;20575;-71
2022/07/12 05:18:15;;;;;;;11.60;2.70;;;;;;;32.22;41.67;101074.88;2110327;28;20563;-72
2022/07/12 05:19:39;;;;;;;7.25;2.80;;;;;;;32.34;41.53;101071.28;2111091;28;20048;-72
2022/07/12 05:21:00;;;;;;;6.05;2.40;;;;;;;32.36;41.55;101069.28;2086118;28;20052;-72
2022/07/12 05:22:23;;;;;;;9.55;3.15;;;;;;;32.38;41.38;101072.78;2096282;28;20863;-72
2022/07/12 05:23:44;;;;;;;4.25;3.13;;;;;;;32.41;41.62;101077.19;2102203;28;20075;-72
2022/07/12 05:25:09;;;;;;;5.28;2.63;;;;;;;32.47;41.46;101075.88;2102213;28;20055;-72
2022/07/12 05:26:33;;;;;;;4.65;2.42;;;;;;;32.55;41.59;101073.47;2093653;28;20045;-72
2022/07/12 05:27:56;;;;;;;6.38;2.78;;;;;;;32.49;41.87;101072.06;2099517;28;20055;-72
2022/07/12 05:29:18;;;;;;;7.78;3.28;;;;;;;32.49;42.11;101073.91;2101661;28;20566;-72
2022/07/12 05:30:39;;;;;;;9.38;2.90;;;;;;;32.53;42.21;101061.75;2104421;28;20051;-72
2022/07/12 05:32:02;;;;;;;4.25;3.00;;;;;;;32.67;42.07;101068.03;2093599;28;20372;-72
2022/07/12 05:33:25;;;;;;;4.22;2.70;;;;;;;32.76;41.97;101070.09;2098716;28;20128;-72
2022/07/12 05:34:46;;;;;;;4.22;2.72;;;;;;;32.87;42.06;101068.47;2101753;28;20083;-72
2022/07/12 05:36:09;;;;;;;6.00;2.47;;;;;;;32.99;41.71;101081.25;2096351;28;20076;-72
2022/07/12 05:37:31;;;;;;;5.15;2.90;;;;;;;33.10;41.41;101078.59;2099162;28;20138;-72
2022/07/12 05:38:53;;;;;;;4.68;2.80;;;;;;;33.25;41.72;101088.44;2093505;28;20040;-72
2022/07/12 05:40:14;;;;;;;5.50;2.83;;;;;;;33.42;41.04;101078.97;2098993;28;20074;-72
2022/07/12 05:41:38;;;;;;;5.97;2.55;;;;;;;33.30;41.45;101083.50;2093461;28;20615;-72
2022/07/12 05:43:00;;;;;;;5.20;2.75;;;;;;;32.95;41.96;101083.31;2108276;28;20050;-72
2022/07/12 05:44:22;;;;;;;7.45;3.65;;;;;;;33.00;42.20;101081.13;2105145;28;20497;-72
2022/07/12 05:45:43;;;;;;;3.85;2.60;;;;;;;33.21;41.75;101070.50;2102258;28;20056;-72
2022/07/12 05:47:06;;;;;;;3.83;2.30;;;;;;;33.31;41.62;101078.91;2108607;28;20059;-72
2022/07/12 05:48:28;;;;;;;6.15;2.90;;;;;;;33.37;41.53;101082.06;2111062;28;20142;-72
2022/07/12 05:49:50;;;;;;;5.78;2.95;;;;;;;33.38;41.45;101077.44;2113452;28;20055;-72
2022/07/12 05:54:37;;;;;;;3.78;2.85;;;;;;;33.40;41.88;101084.56;2111096;28;20409;-72
2022/07/12 05:55:58;;;;;;;4.82;2.53;;;;;;;33.48;41.65;101081.25;2110848;28;20098;-72
2022/07/12 05:57:23;;;;;;;5.43;2.83;;;;;;;33.72;41.18;101084.03;2102035;28;20101;-72
2022/07/12 05:58:45;;;;;;;3.75;2.42;;;;;;;33.96;40.66;101088.50;2108812;28;20415;-72
2022/07/12 06:00:08;;;;;;;5.28;2.95;;;;;;;34.08;40.39;101092.16;2110617;28;20548;-72
2022/07/12 06:01:30;;;;;;;4.82;2.55;;;;;;;34.10;40.44;101087.44;2104665;28;20043;-72
2022/07/12 06:02:53;;;;;;;5.40;2.47;;;;;;;34.24;40.29;101092.78;2102474;28;20578;-72
2022/07/12 06:04:16;;;;;;;5.13;2.60;;;;;;;34.40;40.07;101092.41;2108121;28;20048;-73
2022/07/12 06:05:38;;;;;;;5.13;2.55;;;;;;;34.61;39.84;101090.72;2110849;28;20040;-73
2022/07/12 06:06:59;;;;;;;6.32;2.92;;;;;;;34.82;39.66;101096.41;2110785;28;20047;-72
2022/07/12 06:08:22;;;;;;;6.47;2.47;;;;;;;34.91;39.31;101089.28;2101804;28;20050;-72
2022/07/12 06:09:43;;;;;;;5.85;2.58;;;;;;;35.07;39.00;101093.41;2108222;28;20492;-73
2022/07/12 06:11:05;;;;;;;6.55;2.90;;;;;;;35.12;38.63;101101.25;2110453;28;20047;-72
2022/07/12 06:12:28;;;;;;;4.35;2.60;;;;;;;34.87;38.69;101091.41;2110652;28;20082;-72
2022/07/12 06:13:51;;;;;;;6.60;2.25;;;;;;;34.69;38.46;101098.34;2110805;28;20051;-72
2022/07/12 06:15:14;;;;;;;4.00;2.40;;;;;;;34.67;38.36;101095.72;2101918;28;20629;-72
2022/07/12 06:16:36;;;;;;;4.75;2.25;;;;;;;34.73;37.96;101097.13;2108290;28;20047;-72
2022/07/12 06:17:59;;;;;;;3.00;2.40;;;;;;;34.75;37.88;101081.41;2104958;28;20044;-72
2022/07/12 06:19:23;;;;;;;7.10;2.38;;;;;;;34.79;37.18;101081.03;2107812;28;20051;-72
2022/07/12 06:20:45;;;;;;;6.07;2.10;;;;;;;34.87;36.83;101087.78;2104862;28;20536;-73
2022/07/12 06:22:07;;;;;;;3.92;2.13;;;;;;;34.98;36.51;101082.31;2099524;28;20113;-72
2022/07/12 06:23:30;;;;;;;5.20;2.10;;;;;;;34.99;36.17;101092.28;2107358;28;20086;-72
2022/07/12 06:24:52;;;;;;;4.63;2.25;;;;;;;35.04;35.49;101093.66;2110629;28;20603;-73
2022/07/12 06:26:15;;;;;;;3.47;2.10;;;;;;;35.03;35.60;101091.03;2104985;28;20126;-72
2022/07/12 06:27:39;;;;;;;4.70;2.17;;;;;;;35.02;35.23;101087.41;2107729;28;20106;-72